Time;durP1;ratioP1;P1;durP2;ratioP2;P2;SDS_P1;SDS_P2;PMS_P1;PMS_P2;Temp;Humidity;BMP_temperature;BMP_pressure;BME280_temperature;BME280_humidity;BME280_pressure;Samples;Min_cycle;Max_cycle;Signal;HPM_P1;HPM_P2
2023/03/11 00:02:10;;;;;;;9.50;5.68;;;1.10;99.90;;;;;;4977911;28;20065;-80
2023/03/11 00:04:36;;;;;;;8.55;5.40;;;1.10;99.90;;;;;;4980726;28;20027;-78
2023/03/11 00:07:05;;;;;;;7.53;5.13;;;1.00;99.90;;;;;;4947165;28;20034;-79
2023/03/11 00:09:31;;;;;;;7.95;4.95;;;1.00;99.90;;;;;;4958525;28;20097;-80
2023/03/11 00:11:56;;;;;;;7.43;5.15;;;1.00;99.90;;;;;;4972562;28;20113;-80
2023/03/11 00:14:22;;;;;;;7.85;5.13;;;1.00;99.90;;;;;;4972606;28;20038;-78
2023/03/11 00:16:48;;;;;;;10.05;5.10;;;0.90;99.90;;;;;;4978572;28;20042;-80
2023/03/11 00:19:14;;;;;;;8.48;5.20;;;0.90;99.90;;;;;;4970134;28;20046;-78
2023/03/11 00:21:40;;;;;;;8.98;4.68;;;0.90;99.90;;;;;;4971395;28;20039;-81
2023/03/11 00:24:06;;;;;;;10.90;5.13;;;0.90;99.90;;;;;;4971501;28;20035;-78
2023/03/11 00:26:31;;;;;;;6.93;4.80;;;0.90;99.90;;;;;;4945094;28;20130;-80
2023/03/11 00:28:58;;;;;;;7.88;5.15;;;0.90;99.90;;;;;;4968652;28;20031;-80
2023/03/11 00:31:25;;;;;;;8.50;5.13;;;0.90;99.90;;;;;;4983916;28;20033;-80
2023/03/11 00:33:52;;;;;;;9.63;4.88;;;0.90;99.90;;;;;;4971922;28;20048;-80
2023/03/11 00:36:30;;;;;;;7.38;4.85;;;0.90;99.90;;;;;;4967382;28;20038;-77
2023/03/11 00:38:57;;;;;;;8.05;4.80;;;0.90;99.90;;;;;;4978879;28;20062;-77
2023/03/11 00:41:23;;;;;;;8.52;5.00;;;0.90;99.90;;;;;;4945030;28;20047;-77
2023/03/11 00:43:49;;;;;;;7.10;4.65;;;0.80;99.90;;;;;;4973461;28;20045;-78
2023/03/11 00:46:15;;;;;;;8.02;4.95;;;0.80;99.90;;;;;;4965977;28;20397;-78
2023/03/11 00:48:41;;;;;;;7.72;4.97;;;0.90;99.90;;;;;;4942055;28;20043;-78
2023/03/11 00:51:12;;;;;;;8.10;5.40;;;0.90;99.90;;;;;;4969469;28;20169;-78
2023/03/11 00:53:37;;;;;;;7.22;4.65;;;0.90;99.90;;;;;;4977346;28;20027;-77
2023/03/11 00:56:11;;;;;;;8.65;5.07;;;0.80;99.90;;;;;;4962024;28;20022;-78
2023/03/11 00:58:40;;;;;;;7.13;4.32;;;0.80;99.90;;;;;;4970915;28;20066;-77
2023/03/11 01:01:14;;;;;;;6.35;4.22;;;0.80;99.90;;;;;;4966615;28;20042;-77
2023/03/11 01:03:41;;;;;;;7.15;4.70;;;0.80;99.90;;;;;;4965617;28;20039;-77
2023/03/11 01:06:07;;;;;;;8.25;4.35;;;0.80;99.90;;;;;;4958156;28;20038;-79
2023/03/11 01:08:33;;;;;;;6.68;4.10;;;0.80;99.90;;;;;;4973228;28;20119;-78
2023/03/11 01:11:00;;;;;;;6.93;4.50;;;0.80;99.90;;;;;;4972119;28;20140;-77
2023/03/11 01:13:28;;;;;;;6.15;3.92;;;0.80;99.90;;;;;;4963072;28;20385;-77
2023/03/11 01:15:55;;;;;;;5.75;4.20;;;0.80;99.90;;;;;;4956174;28;20027;-77
2023/03/11 01:18:21;;;;;;;5.50;3.90;;;0.70;99.90;;;;;;4973119;28;20038;-77
2023/03/11 01:20:47;;;;;;;6.70;4.43;;;0.70;99.90;;;;;;4973309;28;20034;-77
2023/03/11 01:23:14;;;;;;;6.80;4.72;;;0.70;99.90;;;;;;4958569;28;20058;-76
2023/03/11 01:25:40;;;;;;;5.90;4.05;;;0.70;99.90;;;;;;4973055;28;20432;-77
2023/03/11 01:28:07;;;;;;;8.25;4.43;;;0.70;99.90;;;;;;4961926;28;20034;-77
2023/03/11 01:30:36;;;;;;;6.15;4.05;;;0.70;99.90;;;;;;4962508;28;20026;-76
2023/03/11 01:33:02;;;;;;;8.13;4.43;;;0.70;99.90;;;;;;4953939;28;20491;-77
2023/03/11 01:35:29;;;;;;;7.40;4.32;;;0.70;99.90;;;;;;4960794;28;20038;-77
2023/03/11 01:37:55;;;;;;;5.30;3.67;;;0.70;99.90;;;;;;4954693;28;20034;-76
2023/03/11 01:40:36;;;;;;;6.50;4.20;;;0.70;99.90;;;;;;4977203;28;20031;-77
2023/03/11 01:43:27;;;;;;;9.18;4.22;;;0.70;99.90;;;;;;4981121;28;20070;-76
2023/03/11 01:45:53;;;;;;;5.57;3.90;;;0.70;99.90;;;;;;4958748;28;20027;-76
2023/03/11 01:48:23;;;;;;;6.95;3.80;;;0.60;99.90;;;;;;4963658;28;20043;-77
2023/03/11 01:50:50;;;;;;;6.57;3.90;;;0.70;99.90;;;;;;4964977;28;20019;-78
2023/03/11 01:53:17;;;;;;;7.18;4.20;;;0.70;99.90;;;;;;4945525;28;20069;-78
2023/03/11 01:55:44;;;;;;;7.45;4.10;;;0.70;99.90;;;;;;4957501;28;20047;-77
2023/03/11 01:58:15;;;;;;;5.93;3.58;;;0.70;99.90;;;;;;4967634;28;20035;-77
2023/03/11 02:00:42;;;;;;;5.28;3.63;;;0.70;99.90;;;;;;4958625;28;20086;-77
2023/03/11 02:03:14;;;;;;;5.40;3.03;;;0.70;99.90;;;;;;4955684;28;20553;-77
2023/03/11 02:05:41;;;;;;;4.47;3.15;;;0.70;99.90;;;;;;4970002;28;20038;-77
2023/03/11 02:08:08;;;;;;;4.32;3.30;;;0.70;99.90;;;;;;4937309;28;20037;-77
2023/03/11 02:10:33;;;;;;;4.97;3.33;;;0.70;99.90;;;;;;4965917;28;20026;-78
2023/03/11 02:13:02;;;;;;;4.65;3.33;;;0.60;99.90;;;;;;4953763;28;20084;-79
2023/03/11 02:15:29;;;;;;;4.90;2.80;;;0.60;99.90;;;;;;4951203;28;20093;-77
2023/03/11 02:17:58;;;;;;;5.18;3.50;;;0.60;99.90;;;;;;4964362;28;20026;-80
2023/03/11 02:20:44;;;;;;;4.60;3.30;;;0.70;99.90;;;;;;4973703;28;20040;-79
2023/03/11 02:23:14;;;;;;;4.43;2.85;;;0.70;99.90;;;;;;4965285;28;20022;-77
2023/03/11 02:26:03;;;;;;;4.72;2.95;;;0.70;99.90;;;;;;4957349;28;20030;-78
2023/03/11 02:28:31;;;;;;;3.50;2.63;;;0.70;99.90;;;;;;4971201;28;20030;-77
2023/03/11 02:30:57;;;;;;;4.38;3.03;;;0.70;99.90;;;;;;4959427;28;20099;-77
2023/03/11 02:33:28;;;;;;;3.63;2.47;;;0.70;99.90;;;;;;4977298;28;20138;-77
2023/03/11 02:35:56;;;;;;;4.32;2.75;;;0.70;99.90;;;;;;4959598;28;20042;-78
2023/03/11 02:38:22;;;;;;;3.45;2.45;;;0.70;99.90;;;;;;4952034;28;20045;-77
2023/03/11 02:40:58;;;;;;;3.95;2.78;;;0.70;99.90;;;;;;4962197;28;20027;-77
2023/03/11 02:43:40;;;;;;;3.25;2.75;;;0.70;99.90;;;;;;4950519;28;20039;-77
2023/03/11 02:46:09;;;;;;;3.38;2.45;;;0.70;99.90;;;;;;4958509;28;20023;-77
2023/03/11 02:48:36;;;;;;;3.95;2.88;;;0.70;99.90;;;;;;4972331;28;20070;-78
2023/03/11 02:51:02;;;;;;;2.83;2.40;;;0.70;99.90;;;;;;4964772;28;20158;-78
2023/03/11 02:53:32;;;;;;;3.60;2.42;;;0.70;99.90;;;;;;4966096;28;20141;-77
2023/03/11 02:55:58;;;;;;;3.25;2.50;;;0.70;99.90;;;;;;4955684;28;20023;-78
2023/03/11 02:58:24;;;;;;;2.97;2.20;;;0.70;99.90;;;;;;4953575;28;20033;-78
2023/03/11 03:00:50;;;;;;;4.18;2.83;;;0.80;99.90;;;;;;4958579;28;20123;-78
2023/03/11 03:03:17;;;;;;;3.72;2.47;;;0.70;99.90;;;;;;4964894;28;20043;-78
2023/03/11 03:05:44;;;;;;;4.28;2.50;;;0.70;99.90;;;;;;4964228;28;20492;-78
2023/03/11 03:08:10;;;;;;;2.88;2.35;;;0.70;99.90;;;;;;4969307;28;20027;-77
2023/03/11 03:10:37;;;;;;;2.63;2.10;;;0.70;99.90;;;;;;4959982;28;20058;-77
2023/03/11 03:13:03;;;;;;;3.10;2.30;;;0.70;99.90;;;;;;4959676;28;20086;-77
2023/03/11 03:15:29;;;;;;;2.30;2.05;;;0.70;99.90;;;;;;4962200;28;20549;-77
2023/03/11 03:17:56;;;;;;;3.22;2.50;;;0.70;99.90;;;;;;4972161;28;20050;-77
2023/03/11 03:20:21;;;;;;;2.28;1.77;;;0.70;99.90;;;;;;4963072;28;20515;-78
2023/03/11 03:22:51;;;;;;;2.65;2.38;;;0.70;99.90;;;;;;4966369;28;20057;-78
2023/03/11 03:25:19;;;;;;;2.85;2.35;;;0.70;99.90;;;;;;4961429;28;20067;-77
2023/03/11 03:27:46;;;;;;;3.72;2.10;;;0.70;99.90;;;;;;4954598;28;20030;-77
2023/03/11 03:30:13;;;;;;;2.47;2.08;;;0.70;99.90;;;;;;4957984;28;20440;-77
2023/03/11 03:32:39;;;;;;;2.10;1.70;;;0.70;99.90;;;;;;4963145;28;20039;-77
2023/03/11 03:35:09;;;;;;;1.63;1.52;;;0.70;99.90;;;;;;4960538;28;20026;-77
2023/03/11 03:37:53;;;;;;;2.25;1.80;;;0.70;99.90;;;;;;4955704;28;20652;-78
2023/03/11 03:40:20;;;;;;;3.58;1.60;;;0.70;99.90;;;;;;4965904;28;20090;-78
2023/03/11 03:42:46;;;;;;;2.25;1.80;;;0.70;99.90;;;;;;4960731;28;20135;-77
2023/03/11 03:45:12;;;;;;;2.33;1.52;;;0.70;99.90;;;;;;4970149;28;20027;-77
2023/03/11 03:47:38;;;;;;;2.00;1.25;;;0.70;99.90;;;;;;4952598;28;20042;-78
2023/03/11 03:50:07;;;;;;;1.73;1.50;;;0.70;99.90;;;;;;4960279;28;20035;-76
2023/03/11 03:52:35;;;;;;;1.38;1.23;;;0.70;99.90;;;;;;4971877;28;20669;-78
2023/03/11 03:55:02;;;;;;;1.65;1.50;;;0.70;99.90;;;;;;4961477;28;20530;-77
2023/03/11 03:57:29;;;;;;;1.90;1.75;;;0.70;99.90;;;;;;4940746;28;20034;-77
2023/03/11 03:59:54;;;;;;;2.03;1.58;;;0.70;99.90;;;;;;4942514;28;20027;-76
2023/03/11 04:02:20;;;;;;;2.00;1.75;;;0.70;99.90;;;;;;4973516;28;20542;-77
2023/03/11 04:04:46;;;;;;;2.50;1.92;;;0.60;99.90;;;;;;4962132;28;20046;-77
2023/03/11 04:07:13;;;;;;;1.52;1.42;;;0.70;99.90;;;;;;4958604;28;20027;-76
2023/03/11 04:09:41;;;;;;;2.72;1.80;;;0.60;99.90;;;;;;4970716;28;20142;-77
2023/03/11 04:12:07;;;;;;;2.70;1.95;;;0.70;99.90;;;;;;4968375;28;20035;-77
2023/03/11 04:14:34;;;;;;;3.55;1.85;;;0.70;99.90;;;;;;4948489;28;20038;-77
2023/03/11 04:17:00;;;;;;;2.00;1.60;;;0.70;99.90;;;;;;4955069;28;20038;-77
2023/03/11 04:19:26;;;;;;;2.22;1.67;;;0.60;99.90;;;;;;4962344;28;20039;-77
2023/03/11 04:21:52;;;;;;;3.90;1.80;;;0.70;99.90;;;;;;4943817;28;20034;-77
2023/03/11 04:24:20;;;;;;;2.05;1.85;;;0.60;99.90;;;;;;4969033;28;20384;-77
2023/03/11 04:26:47;;;;;;;1.83;1.50;;;0.60;99.90;;;;;;4957928;28;20034;-76
2023/03/11 04:29:15;;;;;;;1.77;1.67;;;0.50;99.90;;;;;;4961033;28;20685;-77
2023/03/11 04:31:46;;;;;;;2.28;1.63;;;0.50;99.90;;;;;;4971632;28;20035;-77
2023/03/11 04:34:12;;;;;;;3.08;1.65;;;0.50;99.90;;;;;;4974185;28;20050;-77
2023/03/11 04:36:39;;;;;;;2.80;2.00;;;0.40;99.90;;;;;;4957407;28;20034;-77
2023/03/11 04:39:06;;;;;;;1.73;1.48;;;0.40;99.90;;;;;;4970686;28;20407;-78
2023/03/11 04:41:38;;;;;;;3.05;1.50;;;0.40;99.90;;;;;;4963059;28;20035;-77
2023/03/11 04:44:05;;;;;;;1.75;1.48;;;0.40;99.90;;;;;;4963000;28;20463;-77
2023/03/11 04:46:31;;;;;;;2.63;1.42;;;0.40;99.90;;;;;;4948674;28;20031;-77
2023/03/11 04:48:58;;;;;;;2.15;1.70;;;0.40;99.90;;;;;;4955620;28;20066;-79
2023/03/11 04:51:24;;;;;;;1.60;1.50;;;0.30;99.90;;;;;;4960788;28;20509;-76
2023/03/11 04:53:50;;;;;;;1.88;1.70;;;0.40;99.90;;;;;;4953554;28;20026;-77
2023/03/11 04:56:16;;;;;;;2.00;1.65;;;0.30;99.90;;;;;;4961644;28;20519;-77
2023/03/11 04:58:42;;;;;;;2.25;1.42;;;0.30;99.90;;;;;;4966143;28;20042;-77
2023/03/11 05:01:08;;;;;;;1.50;1.40;;;0.30;99.90;;;;;;4962930;28;20035;-77
2023/03/11 05:03:34;;;;;;;2.17;1.98;;;0.30;99.90;;;;;;4957688;28;20170;-77
2023/03/11 05:06:00;;;;;;;1.35;1.25;;;0.30;99.90;;;;;;4964560;28;20042;-77
2023/03/11 05:08:26;;;;;;;3.25;1.73;;;0.30;99.90;;;;;;4966512;28;20042;-78
2023/03/11 05:10:52;;;;;;;4.68;1.85;;;0.30;99.90;;;;;;4968445;28;20034;-76
2023/03/11 05:13:20;;;;;;;2.13;1.40;;;0.30;99.90;;;;;;4959882;28;20049;-77
2023/03/11 05:15:46;;;;;;;2.33;1.60;;;0.30;99.90;;;;;;4957203;28;20114;-78
2023/03/11 05:18:12;;;;;;;1.85;1.33;;;0.30;99.90;;;;;;4959096;28;20030;-78
2023/03/11 05:20:39;;;;;;;1.52;1.33;;;0.30;99.90;;;;;;4951634;28;20027;-77
2023/03/11 05:23:05;;;;;;;1.77;1.50;;;0.20;99.90;;;;;;4951535;28;20081;-78
2023/03/11 05:25:34;;;;;;;1.67;1.38;;;0.20;99.90;;;;;;4957830;28;20027;-77
2023/03/11 05:28:00;;;;;;;1.73;1.48;;;0.20;99.90;;;;;;4966247;28;20101;-77
2023/03/11 05:30:26;;;;;;;1.92;1.35;;;0.20;99.90;;;;;;4963124;28;20507;-77
2023/03/11 05:32:53;;;;;;;2.75;1.35;;;0.20;99.90;;;;;;4960741;28;20035;-77
2023/03/11 05:35:19;;;;;;;1.70;1.40;;;0.20;99.90;;;;;;4966318;28;20057;-78
2023/03/11 05:37:48;;;;;;;1.45;1.25;;;0.20;99.90;;;;;;4936909;28;20066;-77
2023/03/11 05:40:15;;;;;;;1.88;1.52;;;0.10;99.90;;;;;;4951417;28;20423;-77
2023/03/11 05:42:41;;;;;;;1.30;0.93;;;0.10;99.90;;;;;;4972596;28;20078;-77
2023/03/11 05:45:09;;;;;;;0.80;0.80;;;0.10;99.90;;;;;;4968156;28;20063;-77
2023/03/11 05:47:36;;;;;;;1.73;1.20;;;0.10;99.90;;;;;;4955412;28;20030;-77
2023/03/11 05:50:04;;;;;;;1.42;1.02;;;0.10;99.90;;;;;;4972347;28;20487;-77
2023/03/11 05:52:31;;;;;;;2.00;0.93;;;0.10;99.90;;;;;;4970938;28;20599;-78
2023/03/11 05:54:58;;;;;;;1.58;1.27;;;0.00;99.90;;;;;;4968921;28;20030;-78
2023/03/11 05:57:27;;;;;;;1.02;0.93;;;0.10;99.90;;;;;;4950888;28;20026;-77
2023/03/11 05:59:52;;;;;;;1.33;0.82;;;0.00;99.90;;;;;;4927401;28;20043;-77
2023/03/11 06:02:19;;;;;;;1.33;1.10;;;0.00;99.90;;;;;;4969824;28;20037;-79
2023/03/11 06:04:46;;;;;;;1.92;1.30;;;0.00;99.90;;;;;;4970088;28;20046;-76
2023/03/11 06:07:14;;;;;;;1.73;1.50;;;0.00;99.90;;;;;;4957276;28;20035;-79
2023/03/11 06:09:41;;;;;;;1.90;1.10;;;0.10;99.90;;;;;;4961406;28;20133;-76
2023/03/11 06:12:11;;;;;;;1.55;1.15;;;0.10;99.90;;;;;;4939785;28;20400;-77
2023/03/11 06:14:53;;;;;;;1.75;1.20;;;0.20;99.90;;;;;;4948547;28;20126;-77
2023/03/11 06:17:19;;;;;;;1.67;1.23;;;0.20;99.90;;;;;;4958180;28;20031;-79
2023/03/11 06:19:44;;;;;;;1.55;1.10;;;0.20;99.90;;;;;;4944685;28;20512;-78
2023/03/11 06:22:10;;;;;;;2.40;1.40;;;0.20;99.90;;;;;;4962838;28;20066;-75
2023/03/11 06:24:36;;;;;;;1.55;1.05;;;0.20;99.90;;;;;;4964394;28;20039;-77
2023/03/11 06:27:03;;;;;;;1.48;1.00;;;0.20;99.90;;;;;;4958374;28;20041;-78
2023/03/11 06:29:29;;;;;;;2.88;1.25;;;0.20;99.90;;;;;;4950182;28;20030;-78
2023/03/11 06:31:55;;;;;;;2.08;1.30;;;0.20;99.90;;;;;;4957119;28;20062;-76
2023/03/11 06:34:22;;;;;;;2.17;1.05;;;0.20;99.90;;;;;;4964757;28;20034;-77
2023/03/11 06:36:51;;;;;;;2.25;1.17;;;0.20;99.90;;;;;;4954923;28;20027;-77
2023/03/11 06:39:17;;;;;;;3.83;1.60;;;0.20;99.90;;;;;;4974481;28;20030;-77
2023/03/11 06:41:46;;;;;;;1.27;1.00;;;0.30;99.90;;;;;;4961863;28;20611;-77
2023/03/11 06:44:12;;;;;;;1.75;0.98;;;0.50;99.90;;;;;;4962708;28;20082;-77
2023/03/11 06:46:39;;;;;;;1.30;0.88;;;0.80;99.90;;;;;;4955134;28;20066;-77
2023/03/11 06:49:05;;;;;;;1.25;0.80;;;1.00;99.90;;;;;;4938446;28;20066;-77
2023/03/11 06:51:32;;;;;;;0.85;0.80;;;1.30;99.90;;;;;;4965534;28;20031;-77
2023/03/11 06:53:58;;;;;;;0.88;0.80;;;1.70;99.90;;;;;;4975353;28;20106;-77
2023/03/11 06:56:25;;;;;;;1.65;1.00;;;2.10;99.90;;;;;;4961566;28;20034;-78
2023/03/11 06:58:55;;;;;;;1.65;1.00;;;2.40;99.90;;;;;;4965295;28;20054;-77
2023/03/11 07:01:26;;;;;;;3.92;0.75;;;2.80;99.90;;;;;;4948012;28;20035;-78
2023/03/11 07:03:53;;;;;;;1.98;1.55;;;3.20;99.90;;;;;;4958407;28;20030;-78
2023/03/11 07:06:24;;;;;;;1.05;0.93;;;3.50;99.90;;;;;;4944917;28;20039;-79
2023/03/11 07:08:52;;;;;;;1.83;0.90;;;3.80;99.90;;;;;;4959408;28;20031;-78
2023/03/11 07:11:24;;;;;;;4.05;1.30;;;3.90;99.90;;;;;;4966850;28;20073;-77
2023/03/11 07:13:53;;;;;;;1.20;0.90;;;3.80;99.90;;;;;;4977916;28;20027;-78
2023/03/11 07:16:21;;;;;;;2.40;1.10;;;3.70;99.90;;;;;;4951328;28;20038;-78
2023/03/11 07:18:51;;;;;;;1.15;0.93;;;3.50;99.90;;;;;;4970601;28;20411;-78
2023/03/11 07:21:20;;;;;;;1.30;1.00;;;3.20;99.90;;;;;;4968440;28;20039;-78
2023/03/11 07:23:48;;;;;;;1.15;0.95;;;3.10;99.90;;;;;;4976406;28;20035;-78
2023/03/11 07:26:16;;;;;;;1.30;1.00;;;3.00;99.90;;;;;;4971817;28;20054;-78
2023/03/11 07:28:43;;;;;;;1.98;1.13;;;2.90;99.90;;;;;;4979018;28;20046;-78
2023/03/11 07:31:16;;;;;;;1.30;1.10;;;2.70;99.90;;;;;;4982793;28;20046;-78
2023/03/11 07:33:42;;;;;;;1.05;0.95;;;2.70;99.90;;;;;;4970383;28;20042;-78
2023/03/11 07:36:10;;;;;;;2.08;1.20;;;2.60;99.90;;;;;;4962153;28;20048;-78
2023/03/11 07:38:37;;;;;;;1.85;1.30;;;2.60;99.90;;;;;;4967058;28;20089;-78
2023/03/11 07:41:03;;;;;;;1.23;1.10;;;2.50;99.90;;;;;;4957746;28;20487;-78
2023/03/11 07:43:29;;;;;;;1.35;0.80;;;2.40;99.90;;;;;;4969696;28;20558;-79
2023/03/11 07:46:07;;;;;;;1.05;0.90;;;2.30;99.90;;;;;;4965458;28;20034;-78
2023/03/11 07:48:34;;;;;;;1.50;1.17;;;2.20;99.90;;;;;;4958983;28;20061;-78
2023/03/11 07:51:09;;;;;;;1.40;1.10;;;2.20;99.90;;;;;;4963801;28;20453;-79
2023/03/11 07:53:35;;;;;;;1.20;1.08;;;2.20;99.90;;;;;;4969350;28;20039;-78
2023/03/11 07:56:01;;;;;;;2.50;1.10;;;2.10;99.90;;;;;;4979607;28;20031;-78
2023/03/11 07:58:28;;;;;;;3.00;1.10;;;2.20;99.90;;;;;;4976836;28;20447;-78
2023/03/11 08:00:55;;;;;;;2.05;1.05;;;2.20;99.90;;;;;;4974828;28;20114;-78
2023/03/11 08:03:23;;;;;;;1.27;1.13;;;2.20;99.90;;;;;;4970153;28;20031;-78
2023/03/11 08:05:49;;;;;;;1.70;1.35;;;2.20;99.90;;;;;;4968468;28;20031;-78
2023/03/11 08:08:15;;;;;;;1.70;1.17;;;2.20;99.90;;;;;;4976530;28;20403;-79
2023/03/11 08:10:41;;;;;;;1.35;1.23;;;2.10;99.90;;;;;;4974178;28;20038;-79
2023/03/11 08:13:07;;;;;;;1.38;0.98;;;2.10;99.90;;;;;;4975150;28;20034;-79
2023/03/11 08:15:33;;;;;;;1.20;1.10;;;2.20;99.90;;;;;;4982295;28;20022;-80
2023/03/11 08:17:59;;;;;;;1.50;1.00;;;2.30;99.90;;;;;;4983324;28;20029;-77
2023/03/11 08:20:25;;;;;;;1.23;1.10;;;2.30;99.90;;;;;;4987707;28;20034;-80
2023/03/11 08:22:50;;;;;;;2.10;1.45;;;2.30;99.90;;;;;;4940602;28;20130;-80
2023/03/11 08:25:16;;;;;;;2.05;1.50;;;2.30;99.90;;;;;;4971988;28;20415;-80
2023/03/11 08:27:42;;;;;;;1.55;1.35;;;2.30;99.90;;;;;;4964042;28;20031;-80
2023/03/11 08:30:09;;;;;;;1.77;1.17;;;2.30;99.90;;;;;;4988350;28;20654;-79
2023/03/11 08:32:35;;;;;;;1.52;0.90;;;2.30;99.90;;;;;;4988942;28;20034;-78
2023/03/11 08:35:00;;;;;;;1.10;0.90;;;2.20;99.90;;;;;;4968523;28;20038;-78
2023/03/11 08:37:26;;;;;;;2.92;1.08;;;2.20;99.90;;;;;;4927606;28;20043;-80
2023/03/11 08:39:52;;;;;;;1.00;0.90;;;2.20;99.90;;;;;;4973320;28;20058;-80
2023/03/11 08:42:18;;;;;;;1.35;0.90;;;2.20;99.90;;;;;;4973443;28;20038;-80
2023/03/11 08:44:44;;;;;;;1.35;0.80;;;2.20;99.90;;;;;;4981712;28;20117;-79
2023/03/11 08:47:10;;;;;;;2.67;0.80;;;2.30;99.90;;;;;;4976427;28;20066;-79
2023/03/11 08:49:39;;;;;;;2.95;0.95;;;2.40;99.90;;;;;;4963454;28;20039;-79
2023/03/11 08:52:05;;;;;;;1.40;0.70;;;2.40;99.90;;;;;;4970613;28;20570;-79
2023/03/11 08:54:31;;;;;;;1.27;0.70;;;2.40;99.90;;;;;;4983600;28;20121;-81
2023/03/11 08:57:01;;;;;;;1.00;0.70;;;2.40;99.90;;;;;;4949267;28;20105;-80
2023/03/11 08:59:28;;;;;;;1.92;0.90;;;2.50;99.90;;;;;;4965241;28;20051;-81
2023/03/11 09:01:54;;;;;;;1.38;0.70;;;2.50;99.90;;;;;;4977621;28;20046;-80
2023/03/11 09:04:20;;;;;;;1.88;1.10;;;2.50;99.90;;;;;;4977542;28;20043;-79
2023/03/11 09:06:47;;;;;;;3.45;0.88;;;2.60;99.90;;;;;;4980736;28;20077;-80
2023/03/11 09:09:20;;;;;;;1.85;0.73;;;2.60;99.90;;;;;;4968526;28;20077;-80
2023/03/11 09:11:47;;;;;;;1.83;0.85;;;2.70;99.90;;;;;;4973362;28;20041;-80
2023/03/11 09:14:13;;;;;;;2.15;0.90;;;2.80;99.90;;;;;;4970170;28;20510;-79
2023/03/11 09:16:39;;;;;;;1.10;0.85;;;2.90;99.90;;;;;;4963728;28;20487;-78
2023/03/11 09:19:06;;;;;;;2.00;0.90;;;2.90;99.90;;;;;;4979384;28;20041;-80
2023/03/11 09:21:33;;;;;;;1.23;0.75;;;3.00;99.90;;;;;;4984523;28;20683;-80
2023/03/11 09:23:59;;;;;;;2.20;1.02;;;3.10;99.90;;;;;;4982040;28;20031;-79
2023/03/11 09:26:25;;;;;;;2.65;1.10;;;3.20;99.90;;;;;;4962723;28;20137;-80
2023/03/11 09:28:51;;;;;;;2.50;1.25;;;3.30;99.90;;;;;;4980368;28;20121;-78
2023/03/11 09:31:17;;;;;;;1.63;0.98;;;3.40;99.90;;;;;;4979073;28;20044;-78
2023/03/11 09:33:45;;;;;;;1.77;1.02;;;3.30;99.90;;;;;;4971712;28;20034;-79
2023/03/11 09:36:16;;;;;;;1.30;0.60;;;3.20;99.90;;;;;;4982342;28;20102;-78
2023/03/11 09:38:42;;;;;;;0.77;0.50;;;3.10;99.90;;;;;;4970861;28;20033;-79
2023/03/11 09:41:54;;;;;;;0.70;0.50;;;3.10;99.90;;;;;;4982027;28;20030;-79
2023/03/11 09:44:29;;;;;;;1.73;0.70;;;3.00;99.90;;;;;;4967040;28;20065;-79
2023/03/11 09:47:06;;;;;;;1.00;0.70;;;2.90;99.90;;;;;;4980070;28;20459;-79
2023/03/11 09:49:51;;;;;;;1.60;0.60;;;2.70;99.90;;;;;;4982845;28;20513;-79
2023/03/11 09:52:43;;;;;;;1.48;0.82;;;2.90;99.90;;;;;;4981036;28;20026;-79
2023/03/11 09:55:42;;;;;;;2.17;0.70;;;2.90;99.90;;;;;;4952969;28;20034;-78
2023/03/11 09:58:22;;;;;;;2.60;0.60;;;3.00;99.90;;;;;;4983842;28;20034;-79
2023/03/11 10:00:50;;;;;;;1.52;0.70;;;3.00;99.90;;;;;;4985406;28;20027;-79
2023/03/11 10:03:35;;;;;;;3.95;1.30;;;3.00;99.90;;;;;;4954000;28;20058;-79
2023/03/11 10:06:20;;;;;;;0.50;0.50;;;3.00;99.90;;;;;;4977632;28;20030;-79
2023/03/11 10:09:23;;;;;;;1.20;0.60;;;2.90;99.90;;;;;;4986340;28;20039;-79
2023/03/11 10:12:06;;;;;;;1.35;0.80;;;2.80;99.90;;;;;;4982253;28;20038;-79
2023/03/11 10:14:38;;;;;;;1.15;0.80;;;2.70;99.90;;;;;;4980863;28;20027;-79
2023/03/11 10:17:19;;;;;;;1.17;0.50;;;2.80;99.90;;;;;;4978830;28;20029;-78
2023/03/11 10:20:04;;;;;;;1.98;0.50;;;2.70;99.90;;;;;;4974749;28;20031;-79
2023/03/11 10:22:35;;;;;;;0.68;0.60;;;2.80;99.90;;;;;;4981489;28;20419;-79
2023/03/11 10:25:37;;;;;;;1.83;0.70;;;2.80;99.90;;;;;;4980615;28;20403;-79
2023/03/11 10:28:17;;;;;;;0.85;0.40;;;2.80;99.90;;;;;;4973387;28;20034;-78
2023/03/11 10:30:52;;;;;;;0.43;0.40;;;2.80;99.90;;;;;;4959067;28;20043;-79
2023/03/11 10:33:40;;;;;;;0.68;0.50;;;2.80;99.90;;;;;;4965177;28;20023;-78
2023/03/11 10:36:13;;;;;;;9.02;1.98;;;2.80;99.90;;;;;;4971335;28;20125;-77
2023/03/11 10:38:45;;;;;;;1.95;0.57;;;2.80;99.90;;;;;;4972964;28;20046;-78
2023/03/11 10:41:31;;;;;;;1.80;0.47;;;2.90;99.90;;;;;;4966513;28;20038;-78
2023/03/11 10:44:08;;;;;;;1.00;0.40;;;2.80;99.90;;;;;;4977124;28;20050;-78
2023/03/11 10:46:34;;;;;;;0.95;0.73;;;2.80;99.90;;;;;;4969829;28;20039;-78
2023/03/11 10:49:00;;;;;;;0.65;0.47;;;2.80;99.90;;;;;;4977085;28;20037;-78
2023/03/11 10:51:33;;;;;;;1.23;0.60;;;2.80;99.90;;;;;;4977969;28;20434;-78
2023/03/11 10:54:01;;;;;;;1.92;0.57;;;2.80;99.90;;;;;;4957064;28;20034;-78
2023/03/11 10:56:34;;;;;;;2.50;0.63;;;2.70;99.90;;;;;;4959661;28;20038;-77
2023/03/11 10:59:02;;;;;;;1.17;0.50;;;2.70;99.90;;;;;;4973339;28;20042;-78
2023/03/11 11:01:28;;;;;;;1.85;0.60;;;2.70;99.90;;;;;;4971986;28;20066;-77
2023/03/11 11:03:59;;;;;;;3.65;0.93;;;2.70;99.90;;;;;;4971834;28;20042;-78
2023/03/11 11:06:31;;;;;;;1.27;0.75;;;2.80;99.90;;;;;;4977622;28;20396;-79
2023/03/11 11:09:23;;;;;;;0.52;0.52;;;2.80;99.90;;;;;;4981496;28;20034;-79
2023/03/11 11:12:14;;;;;;;1.25;0.60;;;2.70;99.90;;;;;;4984776;28;20046;-80
2023/03/11 11:14:50;;;;;;;0.70;0.50;;;2.70;99.90;;;;;;4973352;28;20034;-79
2023/03/11 11:17:18;;;;;;;;;;;2.60;99.90;;;;;;4961192;28;20038;-79
2023/03/11 11:19:46;;;;;;;1.77;0.43;;;2.60;99.90;;;;;;4970943;28;19921;-78
2023/03/11 11:22:17;;;;;;;3.00;0.70;;;2.60;99.90;;;;;;4970871;28;20038;-78
2023/03/11 11:24:45;;;;;;;1.42;0.70;;;2.50;99.90;;;;;;4973007;28;20035;-78
2023/03/11 11:27:15;;;;;;;0.63;0.63;;;2.50;99.90;;;;;;4983502;28;20042;-78
2023/03/11 11:29:41;;;;;;;1.25;0.70;;;2.40;99.90;;;;;;4955616;28;20644;-78
2023/03/11 11:32:18;;;;;;;0.88;0.60;;;2.50;99.90;;;;;;4973696;28;20491;-78
2023/03/11 11:35:00;;;;;;;1.40;0.50;;;2.50;99.90;;;;;;4973204;28;20483;-78
2023/03/11 11:37:30;;;;;;;1.55;0.70;;;2.60;99.90;;;;;;4987903;28;20038;-79
2023/03/11 11:40:15;;;;;;;2.33;0.50;;;2.60;99.90;;;;;;4970813;28;20030;-79
2023/03/11 11:43:04;;;;;;;1.58;0.43;;;2.70;99.90;;;;;;4989659;28;20034;-77
2023/03/11 11:45:39;;;;;;;1.30;0.50;;;2.70;99.90;;;;;;4978591;28;20050;-78
2023/03/11 11:48:25;;;;;;;;;;;2.80;99.90;;;;;;4967410;28;20030;-79
2023/03/11 11:50:55;;;;;;;1.27;0.68;;;2.90;99.90;;;;;;4966963;28;19914;-79
2023/03/11 11:53:28;;;;;;;0.32;0.32;;;3.10;99.90;;;;;;4987375;28;20035;-77
2023/03/11 11:55:54;;;;;;;2.08;0.40;;;3.30;99.90;;;;;;4965972;28;20026;-78
2023/03/11 11:58:22;;;;;;;1.58;0.60;;;3.60;99.90;;;;;;4970025;28;20383;-79
2023/03/11 12:01:12;;;;;;;0.30;0.30;;;3.90;99.90;;;;;;4976421;28;20419;-77
2023/03/11 12:03:57;;;;;;;1.77;0.50;;;4.00;99.90;;;;;;4981005;28;20495;-79
2023/03/11 12:06:41;;;;;;;0.38;0.38;;;4.00;99.90;;;;;;4977369;28;20041;-78
2023/03/11 12:09:22;;;;;;;1.33;0.57;;;4.00;99.90;;;;;;4985303;28;20049;-78
2023/03/11 12:12:16;;;;;;;0.63;0.50;;;4.00;99.90;;;;;;4980397;28;20035;-77
2023/03/11 12:15:07;;;;;;;0.47;0.40;;;3.90;99.90;;;;;;4982241;28;20423;-79
2023/03/11 12:17:38;;;;;;;1.60;0.45;;;3.70;99.90;;;;;;4979924;28;20109;-79
2023/03/11 12:20:26;;;;;;;0.90;0.50;;;3.70;99.90;;;;;;4974386;28;20097;-78
2023/03/11 12:23:36;;;;;;;1.92;0.50;;;3.50;99.90;;;;;;4985694;28;20026;-79
2023/03/11 12:26:19;;;;;;;0.85;0.40;;;3.50;99.90;;;;;;4912925;28;20120;-79
2023/03/11 12:28:56;;;;;;;0.82;0.75;;;3.60;99.90;;;;;;4985383;28;20050;-77
2023/03/11 12:31:26;;;;;;;0.90;0.60;;;3.60;99.90;;;;;;4978384;28;20031;-76
2023/03/11 12:33:56;;;;;;;2.92;0.60;;;3.60;99.90;;;;;;4972744;28;20049;-79
2023/03/11 12:36:27;;;;;;;1.95;0.45;;;3.70;99.90;;;;;;4972935;28;20030;-78
2023/03/11 12:38:55;;;;;;;0.98;0.50;;;3.70;99.90;;;;;;4970139;28;20113;-77
2023/03/11 12:41:30;;;;;;;1.27;0.52;;;3.70;99.90;;;;;;4956094;28;20047;-78
2023/03/11 12:44:01;;;;;;;2.38;0.70;;;3.60;99.90;;;;;;4984991;28;20048;-78
2023/03/11 12:46:58;;;;;;;2.40;0.70;;;3.60;99.90;;;;;;4973019;28;20138;-78
2023/03/11 12:49:31;;;;;;;0.40;0.30;;;3.60;99.90;;;;;;4986552;28;20034;-78
2023/03/11 12:52:12;;;;;;;1.00;0.50;;;3.60;99.90;;;;;;4966017;28;20037;-79
2023/03/11 12:54:43;;;;;;;2.22;0.50;;;3.60;99.90;;;;;;4979078;28;20030;-77
2023/03/11 12:57:15;;;;;;;0.93;0.60;;;3.70;99.90;;;;;;4979436;28;20734;-79
2023/03/11 13:00:11;;;;;;;2.15;0.60;;;3.80;99.90;;;;;;4987475;28;20034;-79
2023/03/11 13:03:01;;;;;;;0.80;0.43;;;3.80;99.90;;;;;;4976143;28;20606;-79
2023/03/11 13:05:40;;;;;;;2.60;0.70;;;3.80;99.90;;;;;;4978383;28;20142;-78
2023/03/11 13:08:24;;;;;;;2.53;1.38;;;3.90;99.90;;;;;;4962188;28;20033;-77
2023/03/11 13:10:52;;;;;;;3.53;0.52;;;3.90;99.90;;;;;;4969456;28;20379;-79
2023/03/11 13:13:37;;;;;;;0.90;0.60;;;4.00;99.90;;;;;;4972324;28;20431;-79
2023/03/11 13:16:12;;;;;;;1.02;0.52;;;4.00;99.90;;;;;;4961603;28;20479;-78